createdAt,value
2023-02-20T00:01:28.520Z,7.90
2023-02-20T00:03:55.296Z,8.00
2023-02-20T00:06:22.086Z,8.00
2023-02-20T00:08:48.797Z,8.00
2023-02-20T00:11:15.472Z,8.00
2023-02-20T00:13:47.040Z,8.00
2023-02-20T00:16:14.387Z,8.00
2023-02-20T00:18:41.330Z,8.00
2023-02-20T00:21:08.265Z,8.00
2023-02-20T00:23:35.344Z,8.00
2023-02-20T00:26:02.405Z,8.00
2023-02-20T00:28:29.925Z,8.00
2023-02-20T00:30:57.154Z,8.00
2023-02-20T00:33:23.989Z,8.00
2023-02-20T00:35:50.817Z,8.00
2023-02-20T00:38:19.205Z,8.00
2023-02-20T00:40:46.001Z,8.00
2023-02-20T00:43:12.641Z,8.10
2023-02-20T00:45:39.208Z,8.00
2023-02-20T00:48:05.970Z,8.00
2023-02-20T00:50:32.552Z,8.00
2023-02-20T00:52:59.201Z,8.10
2023-02-20T00:55:25.851Z,8.00
2023-02-20T00:57:52.566Z,8.10
2023-02-20T01:00:23.266Z,8.10
2023-02-20T01:02:50.075Z,8.00
2023-02-20T01:05:17.271Z,8.10
2023-02-20T01:07:43.976Z,8.00
2023-02-20T01:10:11.702Z,8.00
2023-02-20T01:12:38.868Z,8.10
2023-02-20T01:15:07.448Z,8.10
2023-02-20T01:17:34.110Z,8.10
2023-02-20T01:20:00.889Z,8.10
2023-02-20T01:22:27.573Z,8.10
2023-02-20T01:24:55.273Z,8.10
2023-02-20T01:27:21.942Z,8.10
2023-02-20T01:29:48.541Z,8.10
2023-02-20T01:32:15.276Z,8.10
2023-02-20T01:34:42.064Z,8.10
2023-02-20T01:37:14.020Z,8.10
2023-02-20T01:39:41.275Z,8.10
2023-02-20T01:42:14.759Z,8.20
2023-02-20T01:44:42.324Z,8.20
2023-02-20T01:47:12.581Z,8.20
2023-02-20T01:49:41.641Z,8.20
2023-02-20T01:52:27.347Z,8.20
2023-02-20T01:55:15.594Z,8.20
2023-02-20T01:57:49.660Z,8.20
2023-02-20T02:00:20.053Z,8.30
2023-02-20T02:02:56.887Z,8.30
2023-02-20T02:05:25.616Z,8.30
2023-02-20T02:07:52.550Z,8.30
2023-02-20T02:10:25.615Z,8.30
2023-02-20T02:12:54.808Z,8.30
2023-02-20T02:15:23.529Z,8.30
2023-02-20T02:18:14.126Z,8.40
2023-02-20T02:21:12.072Z,8.40
2023-02-20T02:24:22.574Z,8.40
2023-02-20T02:27:17.064Z,8.40
2023-02-20T02:30:26.328Z,8.40
2023-02-20T02:33:12.041Z,8.40
2023-02-20T02:36:09.064Z,8.50
2023-02-20T02:39:23.245Z,8.50
2023-02-20T02:41:58.825Z,8.50
2023-02-20T02:44:44.633Z,8.50
2023-02-20T02:47:18.861Z,8.50
2023-02-20T02:50:08.337Z,8.60
2023-02-20T02:52:46.422Z,8.50
2023-02-20T02:55:13.733Z,8.60
2023-02-20T02:57:40.386Z,8.60
2023-02-20T03:00:12.862Z,8.60
2023-02-20T03:03:00.585Z,8.60
2023-02-20T03:05:39.942Z,8.70
2023-02-20T03:08:38.452Z,8.70
2023-02-20T03:11:17.545Z,8.70
2023-02-20T03:14:15.446Z,8.70
2023-02-20T03:16:56.239Z,8.70
2023-02-20T03:19:35.846Z,8.70
2023-02-20T03:22:08.171Z,8.70
2023-02-20T03:24:55.371Z,8.70
2023-02-20T03:27:29.416Z,8.70
2023-02-20T03:29:58.877Z,8.70
2023-02-20T03:32:50.855Z,8.80
2023-02-20T03:35:38.510Z,8.80
2023-02-20T03:38:27.238Z,8.80
2023-02-20T03:41:15.321Z,8.80
2023-02-20T03:43:45.775Z,8.80
2023-02-20T03:46:22.890Z,8.80
2023-02-20T03:48:56.502Z,8.80
2023-02-20T03:51:24.184Z,8.90
2023-02-20T03:53:51.911Z,8.80
2023-02-20T03:56:26.864Z,8.90
2023-02-20T03:59:29.561Z,8.90
2023-02-20T04:02:00.541Z,8.90
2023-02-20T04:04:33.777Z,8.90
2023-02-20T04:07:04.161Z,8.90
2023-02-20T04:09:35.424Z,8.90
2023-02-20T04:12:14.223Z,8.90
2023-02-20T04:14:41.573Z,9.00
2023-02-20T04:17:13.473Z,9.00
2023-02-20T04:19:40.376Z,9.00
2023-02-20T04:22:11.995Z,9.00
2023-02-20T04:35:33.040Z,9.10
2023-02-20T04:38:00.013Z,9.10
2023-02-20T04:40:27.809Z,9.10
2023-02-20T04:42:54.395Z,9.10
2023-02-20T04:45:21.053Z,9.10
2023-02-20T04:47:47.835Z,9.10
2023-02-20T04:50:21.023Z,9.20
2023-02-20T04:52:47.818Z,9.20
2023-02-20T04:55:15.075Z,9.20
2023-02-20T04:57:41.733Z,9.20
2023-02-20T05:00:10.333Z,9.20
2023-02-20T05:02:41.105Z,9.20
2023-02-20T05:05:22.693Z,9.20
2023-02-20T05:07:49.808Z,9.20
2023-02-20T05:21:32.960Z,9.20
2023-02-20T05:23:59.736Z,9.30
2023-02-20T05:26:27.794Z,9.30
2023-02-20T05:28:55.490Z,9.30
2023-02-20T05:31:22.218Z,9.30
2023-02-20T05:33:49.174Z,9.30
2023-02-20T05:36:17.178Z,9.30
2023-02-20T05:38:47.932Z,9.40
2023-02-20T05:41:18.416Z,9.40
2023-02-20T05:43:45.827Z,9.40
2023-02-20T05:46:13.093Z,9.40
2023-02-20T05:48:40.009Z,9.40
2023-02-20T05:51:06.801Z,9.40
2023-02-20T05:53:34.272Z,9.40
2023-02-20T05:56:00.945Z,9.40
2023-02-20T05:58:27.711Z,9.50
2023-02-20T06:00:54.358Z,9.50
2023-02-20T06:03:20.982Z,9.50
2023-02-20T06:05:47.705Z,9.50
2023-02-20T06:08:14.513Z,9.50
2023-02-20T06:10:41.400Z,9.50
2023-02-20T06:13:08.038Z,9.50
2023-02-20T06:15:34.688Z,9.60
2023-02-20T06:18:01.303Z,9.60
2023-02-20T06:20:27.940Z,9.60
2023-02-20T06:22:54.568Z,9.60
2023-02-20T06:25:21.190Z,9.60
2023-02-20T06:27:47.842Z,9.60
2023-02-20T06:30:14.691Z,9.60
2023-02-20T06:32:41.413Z,9.60
2023-02-20T06:35:08.787Z,9.60
2023-02-20T06:37:35.479Z,9.60
2023-02-20T06:40:04.655Z,9.60
2023-02-20T06:42:31.476Z,9.60
2023-02-20T06:44:58.199Z,9.70
2023-02-20T06:47:25.123Z,9.60
2023-02-20T06:49:51.738Z,9.70
2023-02-20T06:52:18.396Z,9.70
2023-02-20T06:54:45.188Z,9.70
2023-02-20T06:57:11.928Z,9.70
2023-02-20T06:59:41.558Z,9.70
2023-02-20T07:02:12.325Z,9.70
2023-02-20T07:04:39.492Z,9.70
2023-02-20T07:07:06.550Z,9.70
2023-02-20T07:09:37.451Z,9.70
2023-02-20T07:12:04.393Z,9.70
2023-02-20T07:14:31.162Z,9.70
2023-02-20T07:16:57.930Z,9.70
2023-02-20T07:19:26.418Z,9.80
2023-02-20T07:21:56.628Z,9.80
2023-02-20T07:24:23.284Z,9.80
2023-02-20T07:26:49.974Z,9.80
2023-02-20T07:29:16.629Z,9.80
2023-02-20T07:31:46.463Z,9.80
2023-02-20T07:34:13.229Z,9.90
2023-02-20T07:36:41.503Z,9.80
2023-02-20T07:39:08.242Z,9.90
2023-02-20T07:41:35.866Z,9.90
2023-02-20T07:44:09.398Z,9.90
2023-02-20T07:46:36.050Z,9.90
2023-02-20T07:49:04.884Z,9.90
2023-02-20T07:51:32.389Z,9.90
2023-02-20T07:53:59.306Z,9.90
2023-02-20T07:56:26.411Z,9.90
2023-02-20T07:58:53.136Z,9.90
2023-02-20T08:01:20.385Z,10.00
2023-02-20T08:03:47.143Z,9.90
2023-02-20T08:06:18.437Z,10.00
2023-02-20T08:08:50.577Z,10.00
2023-02-20T08:13:46.210Z,10.00
2023-02-20T08:16:13.342Z,10.00
2023-02-20T08:18:40.377Z,10.10
2023-02-20T08:21:07.185Z,10.10
2023-02-20T08:23:33.856Z,10.10
2023-02-20T08:26:00.795Z,10.10
2023-02-20T08:28:27.654Z,10.10
2023-02-20T08:30:54.457Z,10.10
2023-02-20T08:33:21.197Z,10.10
2023-02-20T08:35:54.083Z,10.20
2023-02-20T08:38:37.353Z,10.20
2023-02-20T08:41:12.949Z,10.20
2023-02-20T08:43:41.039Z,10.20
2023-02-20T08:46:08.135Z,10.20
2023-02-20T08:48:36.191Z,10.20
2023-02-20T08:51:03.763Z,10.30
2023-02-20T08:53:30.713Z,10.30
2023-02-20T08:55:57.628Z,10.30
2023-02-20T08:58:25.591Z,10.30
2023-02-20T09:00:52.967Z,10.40
2023-02-20T09:03:19.725Z,10.30
2023-02-20T09:05:46.677Z,10.40
2023-02-20T09:08:13.423Z,10.40
2023-02-20T09:10:40.256Z,10.40
2023-02-20T09:13:07.545Z,10.40
2023-02-20T09:15:39.147Z,10.40
2023-02-20T09:18:11.601Z,10.50
2023-02-20T09:20:38.406Z,10.50
2023-02-20T09:23:06.045Z,10.50
2023-02-20T09:25:33.156Z,10.50
2023-02-20T09:27:59.845Z,10.50
2023-02-20T09:30:26.919Z,10.50
2023-02-20T10:21:53.994Z,10.60
2023-02-20T10:24:40.716Z,10.60
2023-02-20T10:27:25.383Z,10.60
2023-02-20T10:29:53.231Z,10.60
2023-02-20T10:32:30.332Z,10.70
2023-02-20T10:35:06.455Z,10.70
2023-02-20T10:37:47.076Z,10.70
2023-02-20T10:40:24.637Z,10.70
2023-02-20T10:43:18.599Z,10.70
2023-02-20T10:46:08.982Z,10.80
2023-02-20T10:48:42.570Z,10.80
2023-02-20T10:51:30.063Z,10.80
2023-02-20T10:54:04.757Z,10.80
2023-02-20T10:56:37.264Z,10.80
2023-02-20T10:59:25.010Z,10.90
2023-02-20T11:02:01.199Z,10.80
2023-02-20T11:04:35.351Z,10.90
2023-02-20T11:07:13.958Z,10.90
2023-02-20T11:09:41.881Z,10.90
2023-02-20T11:12:32.627Z,10.90
2023-02-20T11:15:05.463Z,11.00
2023-02-20T11:17:40.282Z,11.00
2023-02-20T11:20:47.419Z,11.00
2023-02-20T11:23:39.154Z,11.10
2023-02-20T11:26:21.746Z,11.10
2023-02-20T11:29:03.119Z,11.10
2023-02-20T11:31:31.837Z,11.10
2023-02-20T11:34:01.339Z,11.20
2023-02-20T11:36:45.432Z,11.10
2023-02-20T11:39:21.434Z,11.20
2023-02-20T11:42:03.743Z,11.20
2023-02-20T11:44:30.595Z,11.20
2023-02-20T11:47:16.857Z,11.20
2023-02-20T11:49:43.751Z,11.30
2023-02-20T11:52:19.048Z,11.30
2023-02-20T11:54:48.614Z,11.30
2023-02-20T11:57:27.137Z,11.30
2023-02-20T12:00:16.555Z,11.30
2023-02-20T12:02:58.241Z,11.40
2023-02-20T12:05:43.036Z,11.40
2023-02-20T12:08:38.096Z,11.40
2023-02-20T12:11:17.308Z,11.50
2023-02-20T12:13:47.168Z,11.50
2023-02-20T12:16:51.917Z,11.50
2023-02-20T12:19:40.988Z,11.50
2023-02-20T12:22:35.376Z,11.60
2023-02-20T12:25:52.757Z,11.60
2023-02-20T12:28:55.302Z,11.60
2023-02-20T12:31:59.909Z,11.60
2023-02-20T12:34:32.530Z,11.70
2023-02-20T12:37:27.412Z,11.70
2023-02-20T12:40:19.466Z,11.70
2023-02-20T12:43:27.467Z,11.70
2023-02-20T12:46:00.294Z,11.70
2023-02-20T12:48:57.732Z,11.70
2023-02-20T12:52:02.674Z,11.80
2023-02-20T12:54:55.203Z,11.80
2023-02-20T12:57:53.434Z,11.80
2023-02-20T13:00:34.585Z,11.80
2023-02-20T13:03:10.990Z,11.80
2023-02-20T13:05:42.511Z,11.90
2023-02-20T13:08:41.475Z,11.90
2023-02-20T13:11:18.754Z,11.90
2023-02-20T13:14:22.997Z,11.90
2023-02-20T13:17:10.075Z,11.90
2023-02-20T13:19:44.149Z,11.90
2023-02-20T13:22:10.785Z,11.90
2023-02-20T13:24:38.918Z,11.90
2023-02-20T13:27:28.948Z,11.90
2023-02-20T13:30:25.242Z,11.90
2023-02-20T13:33:13.229Z,11.90
2023-02-20T13:35:52.309Z,12.00
2023-02-20T13:38:21.809Z,11.90
2023-02-20T13:40:58.863Z,12.00
2023-02-20T13:43:28.425Z,11.90
2023-02-20T13:46:01.401Z,11.90
2023-02-20T13:48:34.043Z,11.90
2023-02-20T13:51:16.523Z,11.90
2023-02-20T13:53:50.283Z,11.90
2023-02-20T13:56:24.812Z,11.90
2023-02-20T13:58:54.465Z,11.90
2023-02-20T14:01:21.266Z,11.90
2023-02-20T14:04:00.831Z,11.90
2023-02-20T14:06:28.287Z,11.90
2023-02-20T14:09:11.536Z,11.90
2023-02-20T14:11:41.493Z,11.90
2023-02-20T14:14:37.614Z,11.90
2023-02-20T14:17:22.299Z,11.90
2023-02-20T14:50:33.885Z,11.90
2023-02-20T14:53:21.277Z,11.80
2023-02-20T14:55:53.998Z,11.80
2023-02-20T14:58:39.465Z,11.80
2023-02-20T15:01:44.602Z,11.80
2023-02-20T15:04:30.362Z,11.80
2023-02-20T15:09:53.029Z,11.80
2023-02-20T15:12:41.146Z,11.80
2023-02-20T15:15:16.219Z,11.80
2023-02-20T15:18:30.084Z,11.80
2023-02-20T15:21:01.877Z,11.80
2023-02-20T15:23:49.809Z,11.80
2023-02-20T15:29:54.393Z,11.80
2023-02-20T15:32:58.002Z,11.80
2023-02-20T15:35:31.282Z,11.80
2023-02-20T15:38:17.541Z,11.80
2023-02-20T15:40:58.434Z,11.80
2023-02-20T15:43:48.060Z,11.80
2023-02-20T15:46:19.927Z,11.70
2023-02-20T15:48:46.898Z,11.70
2023-02-20T15:51:30.766Z,11.70
2023-02-20T15:53:58.464Z,11.70
2023-02-20T15:57:05.516Z,11.70
2023-02-20T15:59:47.408Z,11.70
2023-02-20T16:02:40.371Z,11.70
2023-02-20T16:05:19.769Z,11.70
2023-02-20T16:07:46.810Z,11.70
2023-02-20T16:10:25.894Z,11.70
2023-02-20T16:16:53.173Z,11.60
2023-02-20T16:24:57.702Z,11.60
2023-02-20T16:27:27.736Z,11.50
2023-02-20T16:30:33.639Z,11.50
2023-02-20T16:33:30.381Z,11.50
2023-02-20T16:39:03.956Z,11.50
2023-02-20T16:41:46.659Z,11.50
2023-02-20T16:44:51.087Z,11.40
2023-02-20T16:47:20.633Z,11.40
2023-02-20T16:52:27.190Z,11.40
2023-02-20T16:54:55.122Z,11.40
2023-02-20T16:57:23.800Z,11.30
2023-02-20T16:59:55.506Z,11.30
2023-02-20T17:02:27.121Z,11.30
2023-02-20T17:04:53.987Z,11.30
2023-02-20T17:07:21.524Z,11.30
2023-02-20T17:09:48.642Z,11.30
2023-02-20T17:12:18.793Z,11.30
2023-02-20T17:14:46.680Z,11.20
2023-02-20T17:17:14.320Z,11.20
2023-02-20T17:19:42.240Z,11.30
2023-02-20T17:22:10.020Z,11.20
2023-02-20T17:24:43.119Z,11.20
2023-02-20T17:27:11.260Z,11.20
2023-02-20T17:29:38.911Z,11.20
2023-02-20T17:32:05.774Z,11.20
2023-02-20T17:34:32.497Z,11.20
2023-02-20T17:36:59.329Z,11.20
2023-02-20T17:39:26.575Z,11.20
2023-02-20T17:41:55.175Z,11.20
2023-02-20T17:44:28.538Z,11.20
2023-02-20T17:46:57.166Z,11.20
2023-02-20T17:49:25.078Z,11.10
2023-02-20T17:51:55.354Z,11.10
2023-02-20T17:54:25.634Z,11.10
2023-02-20T17:56:52.619Z,11.10
2023-02-20T17:59:19.594Z,11.10
2023-02-20T18:01:47.408Z,11.10
2023-02-20T18:04:14.197Z,11.10
2023-02-20T18:06:41.559Z,11.10
2023-02-20T18:09:09.153Z,11.10
2023-02-20T18:11:36.742Z,11.00
2023-02-20T18:14:03.845Z,11.10
2023-02-20T18:16:30.664Z,11.00
2023-02-20T18:18:57.465Z,11.10
2023-02-20T18:24:11.383Z,11.00
2023-02-20T18:26:38.340Z,11.00
2023-02-20T18:29:05.118Z,11.00
2023-02-20T18:31:32.086Z,11.00
2023-02-20T18:33:58.997Z,11.00
2023-02-20T18:36:25.946Z,10.90
2023-02-20T18:38:52.912Z,10.90
2023-02-20T18:41:20.575Z,10.90
2023-02-20T18:43:47.583Z,10.90
2023-02-20T18:46:24.182Z,10.90
2023-02-20T18:48:50.964Z,10.90
2023-02-20T18:51:17.625Z,10.90
2023-02-20T18:53:47.828Z,10.90
2023-02-20T18:56:14.835Z,10.90
2023-02-20T18:58:41.617Z,10.90
2023-02-20T19:01:08.296Z,10.90
2023-02-20T19:03:34.989Z,10.90
2023-02-20T19:06:05.856Z,10.90
2023-02-20T19:08:32.489Z,10.90
2023-02-20T19:10:59.381Z,10.90
2023-02-20T19:13:26.091Z,10.90
2023-02-20T19:15:52.680Z,10.90
2023-02-20T19:18:19.358Z,10.90
2023-02-20T19:20:46.040Z,10.90
2023-02-20T19:23:12.629Z,10.90
2023-02-20T19:25:39.540Z,10.90
2023-02-20T19:28:07.150Z,10.80
2023-02-20T19:30:33.857Z,10.80
2023-02-20T19:33:00.568Z,10.90
2023-02-20T19:35:27.232Z,10.80
2023-02-20T19:37:55.964Z,10.80
2023-02-20T19:40:22.633Z,10.90
2023-02-20T19:42:49.270Z,10.80
2023-02-20T19:45:16.020Z,10.80
2023-02-20T19:47:42.651Z,10.80
2023-02-20T19:50:10.705Z,10.80
2023-02-20T19:52:37.408Z,10.80
2023-02-20T19:55:04.272Z,10.80
2023-02-20T19:57:30.891Z,10.80
2023-02-20T19:59:57.470Z,10.80
2023-02-20T20:02:25.578Z,10.80
2023-02-20T20:04:52.661Z,10.80
2023-02-20T20:07:19.351Z,10.80
2023-02-20T20:09:46.189Z,10.80
2023-02-20T20:12:31.693Z,10.80
2023-02-20T20:14:58.473Z,10.80
2023-02-20T20:17:25.138Z,10.80
2023-02-20T20:20:00.382Z,10.80
2023-02-20T20:22:29.525Z,10.80
2023-02-20T20:24:56.389Z,10.80
2023-02-20T20:27:23.678Z,10.80
2023-02-20T20:29:51.316Z,10.80
2023-02-20T20:32:20.365Z,10.80
2023-02-20T20:34:52.307Z,10.80
2023-02-20T20:37:25.525Z,10.80
2023-02-20T20:39:56.690Z,10.80
2023-02-20T20:42:25.582Z,10.80
2023-02-20T20:44:58.391Z,10.80
2023-02-20T20:47:28.210Z,10.80
2023-02-20T20:49:55.138Z,10.80
2023-02-20T20:52:26.527Z,10.80
2023-02-20T20:54:55.420Z,10.80
2023-02-20T20:57:25.258Z,10.80
2023-02-20T20:59:52.475Z,10.80
2023-02-20T21:02:19.882Z,10.80
2023-02-20T21:04:49.310Z,10.80
2023-02-20T21:07:18.512Z,10.80
2023-02-20T21:09:47.840Z,10.80
2023-02-20T21:12:15.609Z,10.70
2023-02-20T21:14:43.384Z,10.80
2023-02-20T21:17:11.173Z,10.80
2023-02-20T21:19:38.360Z,10.80
2023-02-20T21:22:05.341Z,10.80
2023-02-20T21:24:36.331Z,10.80
2023-02-20T21:27:04.375Z,10.70
2023-02-20T21:29:31.917Z,10.80
2023-02-20T21:31:58.653Z,10.80
2023-02-20T21:34:27.272Z,10.70
2023-02-20T21:36:54.357Z,10.80
2023-02-20T21:39:22.912Z,10.80
2023-02-20T21:42:08.463Z,10.70
2023-02-20T21:44:36.446Z,10.70
2023-02-20T21:47:05.926Z,10.70
2023-02-20T21:49:34.558Z,10.70
2023-02-20T21:52:01.859Z,10.70
2023-02-20T21:54:31.391Z,10.70
2023-02-20T21:56:59.246Z,10.70
2023-02-20T21:59:26.089Z,10.70
2023-02-20T22:01:53.353Z,10.70
2023-02-20T22:04:21.067Z,10.70
2023-02-20T22:07:07.560Z,10.70
2023-02-20T22:09:53.417Z,10.70
2023-02-20T22:12:39.037Z,10.70
2023-02-20T22:15:24.428Z,10.70
2023-02-20T22:18:10.106Z,10.70
2023-02-20T22:20:55.449Z,10.70
2023-02-20T22:23:40.775Z,10.70
2023-02-20T22:26:26.285Z,10.70
2023-02-20T22:29:11.772Z,10.70
2023-02-20T22:31:57.371Z,10.60
2023-02-20T22:34:42.784Z,10.70
2023-02-20T22:37:28.312Z,10.70
2023-02-20T22:40:13.794Z,10.60
2023-02-20T22:42:59.118Z,10.70
2023-02-20T22:45:46.532Z,10.60
2023-02-20T22:48:31.950Z,10.60
2023-02-20T22:51:17.485Z,10.60
2023-02-20T22:54:05.209Z,10.60
2023-02-20T22:56:50.643Z,10.60
2023-02-20T22:59:36.241Z,10.60
2023-02-20T23:02:21.504Z,10.60
2023-02-20T23:05:07.026Z,10.60
2023-02-20T23:07:52.828Z,10.60
2023-02-20T23:10:38.025Z,10.60
2023-02-20T23:13:23.536Z,10.60
2023-02-20T23:16:09.171Z,10.60
2023-02-20T23:18:54.564Z,10.60
2023-02-20T23:21:40.011Z,10.60
2023-02-20T23:24:25.282Z,10.60
2023-02-20T23:27:13.886Z,10.60
2023-02-20T23:29:59.338Z,10.60
2023-02-20T23:32:44.909Z,10.60
2023-02-20T23:35:31.043Z,10.60
2023-02-20T23:38:16.537Z,10.60
2023-02-20T23:41:01.884Z,10.60
2023-02-20T23:43:47.755Z,10.60
2023-02-20T23:46:33.345Z,10.60
2023-02-20T23:49:18.853Z,10.60
2023-02-20T23:52:14.854Z,10.60
2023-02-20T23:55:01.736Z,10.60
2023-02-20T23:57:47.424Z,10.60
